Time;durP1;ratioP1;P1;durP2;ratioP2;P2;SDS_P1;SDS_P2;PMS_P1;PMS_P2;Temp;Humidity;BMP_temperature;BMP_pressure;BME280_temperature;BME280_humidity;BME280_pressure;Samples;Min_cycle;Max_cycle;Signal;HPM_P1;HPM_P2
2023/01/22 02:01:06;;;;;;;;;;;;;;;0.31;79.93;100670.97;1074308;54;20651;31
2023/01/22 02:03:41;;;;;;;;;;;;;;;0.32;79.58;100666.56;1074600;54;20876;31
2023/01/22 02:14:22;;;;;;;;;;;;;;;0.47;79.61;100677.28;1074921;54;19942;31
2023/01/22 02:15:30;;;;;;;;;;;;;;;0.36;79.55;100671.66;1076583;54;19946;31
2023/01/22 02:16:39;;;;;;;;;;;;;;;0.31;79.81;100678.84;1076424;54;19953;31
2023/01/22 02:17:41;;;;;;;;;;;;;;;0.33;79.68;100678.81;1078422;54;20397;31
2023/01/22 02:18:48;;;;;;;;;;;;;;;0.29;79.87;100675.44;1076225;54;19997;31
2023/01/22 02:22:11;;;;;;;;;;;;;;;0.35;79.97;100672.56;1088618;54;19974;-84
2023/01/22 02:24:35;;;;;;;;;;;;;;;0.34;79.82;100670.84;1076261;54;20886;31
2023/01/22 02:41:37;;;;;;;;;;;;;;;0.75;78.56;100672.63;1076066;54;19945;31
2023/01/22 02:52:37;;;;;;;;;;;;;;;0.98;77.52;100671.63;1081336;54;19934;-83
2023/01/22 03:25:38;;;;;;;;;;;;;;;1.19;76.49;100661.06;1076591;54;20895;31
2023/01/22 04:10:57;;;;;;;;;;;;;;;0.80;79.75;100662.78;1076275;54;20832;31
2023/01/22 10:08:51;;;;;;;;;;;;;;;2.00;76.27;100899.03;1074528;54;21733;31
2023/01/22 10:10:01;;;;;;;;;;;;;;;1.99;76.26;100892.03;1085586;46;19946;31
2023/01/22 10:11:07;;;;;;;;;;;;;;;2.04;76.23;100889.19;1094864;46;19950;31
2023/01/22 10:21:45;;;;;;;;;;;;;;;2.17;75.93;100894.78;1075978;54;20762;31
2023/01/22 10:22:54;;;;;;;;;;;;;;;2.22;76.25;100891.94;1076572;54;19954;31
2023/01/22 10:32:58;;;;;;;;;;;;;;;2.52;74.83;100894.06;1088487;31;20132;-84
2023/01/22 11:04:29;;;;;;;;;;;;;;;2.26;75.43;100897.00;1095212;39;20652;-81
2023/01/22 11:05:34;;;;;;;;;;;;;;;2.14;75.18;100895.75;1088562;54;19999;-82
2023/01/22 11:06:41;;;;;;;;;;;;;;;2.16;75.14;100893.06;1089481;46;19950;-83
2023/01/22 11:07:43;;;;;;;;;;;;;;;2.15;75.07;100894.84;1088397;54;20616;-82
2023/01/22 11:09:01;;;;;;;;;;;;;;;2.13;75.41;100898.47;1088666;54;19942;-85
2023/01/22 11:18:57;;;;;;;;;;;;;;;2.07;75.18;100904.88;1088493;54;19934;-83
2023/01/22 11:20:24;;;;;;;;;;;;;;;2.20;75.43;100907.81;1088227;54;19943;-84
2023/01/22 11:21:31;;;;;;;;;;;;;;;2.21;75.10;100906.91;1088117;54;19927;-84
2023/01/22 11:49:23;;;;;;;;;;;;;;;2.58;73.73;100878.78;1089168;54;19938;-79
2023/01/22 11:52:08;;;;;;;;;;;;;;;;;;;;;
2023/01/22 11:54:57;;;;;;;;;;;;;;;2.96;72.87;100869.97;1089307;54;19939;-76
2023/01/22 11:56:15;;;;;;;;;;;;;;;2.97;72.27;100871.66;1088854;54;19946;-78
2023/01/22 11:57:38;;;;;;;;;;;;;;;;;;;;;
2023/01/22 11:58:50;;;;;;;;;;;;;;;2.65;71.93;100874.91;1088686;54;20049;-77
2023/01/22 12:01:46;;;;;;;;;;;;;;;;;;;;;
2023/01/22 12:03:14;;;;;;;;;;;;;;;2.52;72.39;100872.94;1090221;46;19970;-80
2023/01/22 12:04:31;;;;;;;;;;;;;;;2.53;72.31;100872.00;1088537;54;19973;-78
2023/01/22 12:07:53;;;;;;;;;;;;;;;2.65;72.06;100866.16;1088835;54;21176;-78
2023/01/22 12:09:22;;;;;;;;;;;;;;;2.65;72.17;100874.91;1089924;46;20032;-78
2023/01/22 12:10:41;;;;;;;;;;;;;;;2.66;72.49;100870.50;1089373;46;19926;-79
2023/01/22 12:12:06;;;;;;;;;;;;;;;2.60;71.89;100870.78;1088900;54;20010;-79
2023/01/22 12:16:14;;;;;;;;;;;;;;;2.52;72.17;100871.19;1094954;38;20619;-82
2023/01/22 12:17:23;;;;;;;;;;;;;;;2.59;72.26;100869.94;1089758;54;19939;-81
2023/01/22 12:18:38;;;;;;;;;;;;;;;2.54;71.75;100871.97;1093777;38;20607;-83
2023/01/22 12:19:57;;;;;;;;;;;;;;;2.54;72.33;100871.97;1089755;54;19946;-82
2023/01/22 12:21:05;;;;;;;;;;;;;;;2.56;72.12;100877.16;1089831;54;19930;-82
2023/01/22 12:22:11;;;;;;;;;;;;;;;2.53;72.22;100872.88;1089722;54;19927;-82
2023/01/22 12:23:14;;;;;;;;;;;;;;;2.58;72.47;100870.88;1089713;54;19950;-83
2023/01/22 12:24:22;;;;;;;;;;;;;;;2.72;72.35;100874.66;1089682;54;19979;-82
2023/01/22 12:25:29;;;;;;;;;;;;;;;2.77;72.33;100868.22;1097244;38;20605;-83
2023/01/22 12:26:34;;;;;;;;;;;;;;;2.74;71.85;100867.50;1089935;54;19950;-83
2023/01/22 12:27:37;;;;;;;;;;;;;;;2.71;70.99;100867.66;1089923;54;19942;-80
2023/01/22 12:28:44;;;;;;;;;;;;;;;2.68;71.76;100867.78;1089924;54;19942;-81
2023/01/22 12:29:52;;;;;;;;;;;;;;;2.64;71.75;100861.81;1089878;54;19974;-82
2023/01/22 12:30:59;;;;;;;;;;;;;;;2.70;71.90;100863.28;1089744;54;19927;-83
2023/01/22 12:32:03;;;;;;;;;;;;;;;2.78;71.63;100869.06;1089902;54;20645;-82
2023/01/22 12:33:13;;;;;;;;;;;;;;;2.80;71.25;100867.19;1089896;54;19943;-81
2023/01/22 12:34:21;;;;;;;;;;;;;;;2.85;71.24;100867.81;1089875;54;19950;-82
2023/01/22 12:35:24;;;;;;;;;;;;;;;2.92;71.44;100865.75;1089869;54;19942;-83
2023/01/22 12:36:31;;;;;;;;;;;;;;;2.93;71.04;100857.72;1095328;38;20504;-83
2023/01/22 12:37:36;;;;;;;;;;;;;;;2.99;71.28;100861.03;1089939;54;19927;-82
2023/01/22 12:38:56;;;;;;;;;;;;;;;2.92;70.41;100869.25;1089882;54;19933;-83
2023/01/22 12:40:04;;;;;;;;;;;;;;;2.96;71.21;100868.16;1089960;54;19942;-81
2023/01/22 12:41:23;;;;;;;;;;;;;;;3.01;70.92;100869.72;1096247;46;19946;-82
2023/01/22 12:42:30;;;;;;;;;;;;;;;2.98;70.81;100876.00;1089323;54;19967;-82
2023/01/22 12:43:34;;;;;;;;;;;;;;;2.93;70.47;100867.47;1088525;54;19939;-83
2023/01/22 12:44:51;;;;;;;;;;;;;;;2.78;70.45;100869.94;1089248;46;19950;-83
2023/01/22 12:46:01;;;;;;;;;;;;;;;2.73;70.77;100865.81;1088557;46;19930;-83
2023/01/22 12:47:10;;;;;;;;;;;;;;;2.78;70.99;100872.56;1089721;46;19927;-83
2023/01/22 12:48:19;;;;;;;;;;;;;;;2.77;70.81;100873.50;1091697;46;19943;-83
2023/01/22 12:49:23;;;;;;;;;;;;;;;2.75;70.80;100866.56;1088491;54;19999;-84
2023/01/22 12:50:36;;;;;;;;;;;;;;;2.61;70.89;100875.13;1088476;54;19942;-81
2023/01/22 12:51:39;;;;;;;;;;;;;;;2.58;70.84;100877.94;1088084;54;19991;-81
2023/01/22 12:52:58;;;;;;;;;;;;;;;2.54;70.89;100876.38;1087870;54;19949;-80
2023/01/22 12:54:07;;;;;;;;;;;;;;;2.50;70.86;100873.03;1087968;54;19942;-80
2023/01/22 12:55:24;;;;;;;;;;;;;;;2.48;70.38;100880.16;1087937;54;19943;-81
2023/01/22 12:56:29;;;;;;;;;;;;;;;2.49;70.71;100884.50;1087978;54;19946;-81
2023/01/22 12:57:42;;;;;;;;;;;;;;;2.50;70.73;100875.66;1088000;54;19949;-82
2023/01/22 12:58:54;;;;;;;;;;;;;;;2.58;70.91;100878.78;1088068;54;19943;-80
2023/01/22 12:59:58;;;;;;;;;;;;;;;2.64;70.77;100877.66;1087934;54;19953;-82
2023/01/22 13:01:06;;;;;;;;;;;;;;;2.65;70.69;100879.34;1088407;46;19946;-80
2023/01/22 13:02:20;;;;;;;;;;;;;;;2.64;70.65;100875.88;1091086;46;19950;-80
2023/01/22 13:03:25;;;;;;;;;;;;;;;2.61;70.44;100877.78;1088003;54;19942;-80
2023/01/22 13:04:27;;;;;;;;;;;;;;;2.64;70.38;100878.53;1091172;39;20581;-80
2023/01/22 13:05:41;;;;;;;;;;;;;;;2.63;70.27;100881.22;1087988;46;20291;-80
2023/01/22 13:06:46;;;;;;;;;;;;;;;2.55;70.19;100881.56;1088015;46;19942;-81
2023/01/22 13:07:48;;;;;;;;;;;;;;;2.61;70.34;100883.06;1088017;46;19998;-80
2023/01/22 13:08:53;;;;;;;;;;;;;;;2.57;70.50;100882.34;1087908;54;19955;-81
2023/01/22 13:10:01;;;;;;;;;;;;;;;2.55;70.83;100884.19;1088014;54;19950;-79
2023/01/22 13:11:08;;;;;;;;;;;;;;;2.54;70.77;100887.81;1087923;54;19961;-80
2023/01/22 13:12:23;;;;;;;;;;;;;;;2.55;70.57;100884.19;1092396;39;20173;-80
2023/01/22 13:13:30;;;;;;;;;;;;;;;2.51;70.57;100880.00;1088498;39;20583;-82
2023/01/22 13:14:33;;;;;;;;;;;;;;;2.54;70.84;100885.16;1087900;54;19950;-81
2023/01/22 13:15:38;;;;;;;;;;;;;;;2.53;70.91;100886.09;1087919;54;19942;-79
2023/01/22 13:16:52;;;;;;;;;;;;;;;2.55;70.56;100884.19;1088147;46;19973;-79
2023/01/22 13:17:55;;;;;;;;;;;;;;;2.58;70.59;100889.34;1087906;54;19942;-80
2023/01/22 13:19:01;;;;;;;;;;;;;;;2.57;70.64;100889.44;1088021;54;19950;-80
2023/01/22 13:20:03;;;;;;;;;;;;;;;2.60;70.62;100890.13;1090924;46;19938;-80
2023/01/22 13:21:07;;;;;;;;;;;;;;;2.67;70.42;100888.06;1087972;54;19942;-81
2023/01/22 13:22:15;;;;;;;;;;;;;;;2.69;70.11;100887.97;1087745;54;19947;-80
2023/01/22 13:23:16;;;;;;;;;;;;;;;2.72;70.16;100890.50;1087814;54;20005;-80
2023/01/22 13:24:23;;;;;;;;;;;;;;;2.65;70.09;100884.63;1092387;39;20640;-80
2023/01/22 13:25:25;;;;;;;;;;;;;;;2.59;70.32;100893.72;1087866;54;20239;-80
2023/01/22 13:26:30;;;;;;;;;;;;;;;2.60;70.37;100889.28;1087767;54;19949;-80
2023/01/22 13:27:33;;;;;;;;;;;;;;;2.64;70.54;100886.44;1088647;46;20043;-84
2023/01/22 13:28:37;;;;;;;;;;;;;;;2.62;70.13;100893.56;1087794;54;19992;-80
2023/01/22 13:29:40;;;;;;;;;;;;;;;2.62;69.91;100890.94;1088298;46;19943;-83
2023/01/22 13:30:44;;;;;;;;;;;;;;;2.64;69.95;100889.06;1087936;54;19942;-82
2023/01/22 13:31:55;;;;;;;;;;;;;;;2.67;70.10;100890.72;1088101;46;19942;-82
2023/01/22 13:33:03;;;;;;;;;;;;;;;2.64;69.99;100888.22;1087813;54;20960;-82
2023/01/22 13:34:16;;;;;;;;;;;;;;;2.63;69.96;100884.72;1088426;46;19946;-83
2023/01/22 13:35:17;;;;;;;;;;;;;;;2.64;70.30;100899.63;1087821;54;19942;-83
2023/01/22 13:36:21;;;;;;;;;;;;;;;2.62;69.88;100893.56;1087912;54;19943;-81
2023/01/22 13:37:29;;;;;;;;;;;;;;;2.62;69.51;100898.84;1088003;46;19968;-81
2023/01/22 13:38:34;;;;;;;;;;;;;;;2.58;69.82;100888.50;1087849;54;19943;-79
2023/01/22 13:39:45;;;;;;;;;;;;;;;2.56;69.57;100893.84;1087865;54;19977;-81
2023/01/22 13:40:53;;;;;;;;;;;;;;;2.60;69.89;100891.91;1087894;54;19950;-82
2023/01/22 13:44:24;;;;;;;;;;;;;;;2.72;69.31;100895.78;1088476;54;19951;-81
2023/01/22 13:45:26;;;;;;;;;;;;;;;2.75;69.37;100888.56;1083352;54;20833;-84
2023/01/22 13:49:45;;;;;;;;;;;;;;;2.91;68.87;100890.44;1088964;39;20747;-84
2023/01/22 13:50:55;;;;;;;;;;;;;;;2.81;68.79;100890.03;1085875;54;19950;-84
2023/01/22 13:51:58;;;;;;;;;;;;;;;2.72;69.11;100893.97;1088593;54;19943;-84
2023/01/22 13:53:04;;;;;;;;;;;;;;;2.71;69.06;100894.06;1088523;54;19947;-85
2023/01/22 13:54:08;;;;;;;;;;;;;;;2.70;69.15;100892.34;1091513;46;19946;-84
2023/01/22 13:56:17;;;;;;;;;;;;;;;2.71;69.00;100888.78;1088167;54;19930;-85
2023/01/22 13:58:35;;;;;;;;;;;;;;;2.85;68.57;100893.38;1080515;54;19949;-83
2023/01/22 13:59:39;;;;;;;;;;;;;;;2.92;69.11;100882.47;1088725;54;19954;-83
2023/01/22 14:00:51;;;;;;;;;;;;;;;2.86;68.44;100887.19;1088698;54;19942;-85
2023/01/22 14:05:23;;;;;;;;;;;;;;;2.86;68.17;100888.03;1088822;54;19950;-85
2023/01/22 14:06:24;;;;;;;;;;;;;;;2.83;68.51;100884.69;1088581;54;19923;-84
2023/01/22 14:07:29;;;;;;;;;;;;;;;2.80;68.46;100893.63;1088746;46;20904;-82
2023/01/22 14:08:30;;;;;;;;;;;;;;;2.81;68.50;100887.41;1104629;39;20769;-84
2023/01/22 14:09:35;;;;;;;;;;;;;;;2.89;68.92;100892.28;1088511;54;19949;-82
2023/01/22 14:10:36;;;;;;;;;;;;;;;2.82;68.81;100894.41;1088586;54;20039;-83
2023/01/22 14:11:42;;;;;;;;;;;;;;;2.86;68.72;100900.38;1088443;54;19927;-85
2023/01/22 14:12:46;;;;;;;;;;;;;;;2.79;68.66;100891.91;1088522;54;19934;-84
2023/01/22 14:13:50;;;;;;;;;;;;;;;2.78;68.63;100898.97;1088503;54;19938;-85
2023/01/22 14:14:54;;;;;;;;;;;;;;;2.74;68.85;100899.19;1088483;54;20665;-83
2023/01/22 14:16:00;;;;;;;;;;;;;;;2.68;68.63;100899.47;1103071;39;20217;-84
2023/01/22 14:17:04;;;;;;;;;;;;;;;2.66;69.28;100896.91;1088430;54;19996;-83
2023/01/22 14:18:10;;;;;;;;;;;;;;;2.67;69.07;100896.00;1088460;54;19950;-83
2023/01/22 14:19:12;;;;;;;;;;;;;;;2.74;69.01;100900.03;1094275;46;19958;-83
2023/01/22 14:20:16;;;;;;;;;;;;;;;2.75;69.21;100901.75;1088551;54;20547;-83
2023/01/22 14:21:22;;;;;;;;;;;;;;;2.74;69.07;100905.31;1088523;54;19942;-83
2023/01/22 14:22:27;;;;;;;;;;;;;;;2.68;69.22;100910.03;1088479;54;20804;-84
2023/01/22 14:23:34;;;;;;;;;;;;;;;2.72;69.63;100907.19;1109797;39;20586;-83
2023/01/22 14:24:37;;;;;;;;;;;;;;;2.66;69.24;100904.84;1088486;54;19966;-84
2023/01/22 14:25:39;;;;;;;;;;;;;;;2.68;69.47;100905.63;1096201;46;19938;-84
2023/01/22 14:26:43;;;;;;;;;;;;;;;2.76;69.55;100906.13;1088316;54;19998;-82
2023/01/22 14:27:48;;;;;;;;;;;;;;;2.72;69.42;100907.19;1088503;54;19946;-83
2023/01/22 14:28:49;;;;;;;;;;;;;;;2.76;69.25;100914.03;1088443;54;19934;-83
2023/01/22 14:29:54;;;;;;;;;;;;;;;2.79;68.93;100908.59;1088523;54;19934;-83
2023/01/22 14:30:58;;;;;;;;;;;;;;;2.88;69.12;100917.03;1088451;54;19943;-83
2023/01/22 14:31:59;;;;;;;;;;;;;;;2.85;68.65;100914.53;1088396;54;19942;-83
2023/01/22 14:33:04;;;;;;;;;;;;;;;2.76;68.58;100913.16;1088378;54;19935;-82
2023/01/22 14:34:05;;;;;;;;;;;;;;;2.77;68.88;100909.59;1088374;54;19942;-84
2023/01/22 14:35:16;;;;;;;;;;;;;;;2.77;68.82;100914.88;1091944;46;20016;-82
2023/01/22 14:36:20;;;;;;;;;;;;;;;2.79;68.60;100913.03;1091348;46;19942;-84
2023/01/22 14:37:26;;;;;;;;;;;;;;;2.81;68.02;100913.81;1090614;46;19967;-83
2023/01/22 14:38:27;;;;;;;;;;;;;;;2.82;68.18;100912.88;1088408;54;19975;-82
2023/01/22 14:39:33;;;;;;;;;;;;;;;2.89;68.41;100910.78;1088373;54;19978;-82
2023/01/22 14:40:34;;;;;;;;;;;;;;;2.86;67.99;100914.44;1088833;46;19943;-85
2023/01/22 14:41:38;;;;;;;;;;;;;;;2.78;67.77;100911.31;1088630;46;19933;-81
2023/01/22 14:42:39;;;;;;;;;;;;;;;2.76;68.12;100908.75;1089162;46;19943;-83
2023/01/22 14:43:43;;;;;;;;;;;;;;;2.77;68.19;100915.75;1088710;46;20010;-83
2023/01/22 14:44:47;;;;;;;;;;;;;;;2.85;68.28;100914.53;1089300;46;19933;-84
2023/01/22 14:45:51;;;;;;;;;;;;;;;2.79;68.20;100911.22;1089377;46;19930;-83
2023/01/22 14:46:52;;;;;;;;;;;;;;;2.76;68.19;100918.44;1089947;46;19933;-82
2023/01/22 14:47:56;;;;;;;;;;;;;;;2.74;67.94;100915.88;1089085;46;19935;-83
2023/01/22 14:49:00;;;;;;;;;;;;;;;2.78;68.36;100913.94;1091857;46;19923;-82
2023/01/22 14:50:01;;;;;;;;;;;;;;;2.75;68.21;100917.59;1088346;54;19954;-84
2023/01/22 14:51:09;;;;;;;;;;;;;;;2.73;68.47;100918.63;1088396;54;19934;-82
2023/01/22 14:52:15;;;;;;;;;;;;;;;2.71;68.44;100923.09;1088324;54;19942;-85
2023/01/22 14:53:17;;;;;;;;;;;;;;;2.70;68.28;100924.88;1088500;54;19931;-86
2023/01/22 14:54:21;;;;;;;;;;;;;;;2.76;68.26;100918.44;1088443;54;20673;-84
2023/01/22 14:55:22;;;;;;;;;;;;;;;2.69;68.18;100923.19;1088416;54;19949;-81
2023/01/22 14:56:29;;;;;;;;;;;;;;;2.67;68.41;100927.69;1088454;54;19946;-80
2023/01/22 14:57:30;;;;;;;;;;;;;;;2.65;68.09;100935.66;1088402;54;19950;-82
2023/01/22 14:58:35;;;;;;;;;;;;;;;2.73;68.32;100930.00;1088518;54;19942;-82
2023/01/22 14:59:38;;;;;;;;;;;;;;;2.78;68.39;100932.44;1088327;54;19965;-81
2023/01/22 15:00:43;;;;;;;;;;;;;;;2.76;68.34;100926.38;1088459;54;19943;-82
2023/01/22 15:01:47;;;;;;;;;;;;;;;2.73;68.44;100931.81;1088437;54;19949;-82
2023/01/22 15:02:51;;;;;;;;;;;;;;;2.69;68.41;100935.50;1088533;54;19927;-85
2023/01/22 15:03:55;;;;;;;;;;;;;;;2.67;68.29;100934.72;1088390;54;19934;-83
2023/01/22 15:04:56;;;;;;;;;;;;;;;2.69;68.47;100930.22;1088002;54;19949;-84
2023/01/22 15:06:01;;;;;;;;;;;;;;;2.67;68.49;100940.00;1088482;54;19934;-83
2023/01/22 15:07:02;;;;;;;;;;;;;;;2.71;68.76;100936.31;1088535;54;19927;-83
2023/01/22 15:08:12;;;;;;;;;;;;;;;2.73;68.65;100942.38;1090677;39;20509;-84
2023/01/22 15:13:44;;;;;;;;;;;;;;;2.93;67.98;100941.41;1088075;54;19939;-87
2023/01/22 15:14:46;;;;;;;;;;;;;;;2.96;68.04;100942.13;1088514;54;19943;-83
2023/01/22 15:15:50;;;;;;;;;;;;;;;2.87;67.40;100942.56;1093828;39;20566;-82
2023/01/22 15:16:52;;;;;;;;;;;;;;;2.86;67.77;100942.66;1088386;54;19934;-83
2023/01/22 15:17:57;;;;;;;;;;;;;;;2.76;67.92;100942.22;1088512;54;19950;-82
2023/01/22 15:20:06;;;;;;;;;;;;;;;2.85;68.33;100944.41;1088428;54;19942;-83
2023/01/22 15:21:10;;;;;;;;;;;;;;;2.84;67.98;100942.69;1088482;54;19934;-84
2023/01/22 15:22:17;;;;;;;;;;;;;;;2.79;67.77;100948.19;1092523;39;20542;-82
2023/01/22 15:23:23;;;;;;;;;;;;;;;2.78;68.16;100943.88;1091414;39;20562;-83
2023/01/22 15:24:27;;;;;;;;;;;;;;;2.77;68.11;100944.81;1088409;54;19949;-84
2023/01/22 15:25:31;;;;;;;;;;;;;;;2.81;68.18;100948.16;1102597;39;20447;-82
2023/01/22 15:27:39;;;;;;;;;;;;;;;2.77;67.95;100949.22;1088252;54;19935;-83
2023/01/22 15:28:43;;;;;;;;;;;;;;;2.84;68.17;100955.91;1088447;54;19966;-84
2023/01/22 15:30:03;;;;;;;;;;;;;;;2.77;68.07;100946.56;1098860;46;19963;-78
2023/01/22 15:40:42;;;;;;;;;;;;;;;2.67;68.38;100953.22;1087808;54;20706;-84
2023/01/22 15:41:44;;;;;;;;;;;;;;;2.76;68.36;100958.94;1093996;39;20606;-83
2023/01/22 15:44:11;;;;;;;;;;;;;;;2.85;68.16;100964.69;1088123;54;19934;-85
2023/01/22 15:45:15;;;;;;;;;;;;;;;2.85;68.35;100959.41;1088038;54;19977;-83
2023/01/22 15:46:23;;;;;;;;;;;;;;;2.80;68.27;100968.41;1088140;54;19962;-84
2023/01/22 15:47:27;;;;;;;;;;;;;;;2.75;68.47;100962.50;1088074;54;19942;-84
2023/01/22 15:48:30;;;;;;;;;;;;;;;2.73;68.47;100966.16;1088255;54;19927;-84
2023/01/22 15:49:39;;;;;;;;;;;;;;;2.75;68.54;100969.53;1087627;54;19943;-82
2023/01/22 15:50:41;;;;;;;;;;;;;;;2.79;68.60;100968.50;1089585;39;20263;-79
2023/01/22 15:51:49;;;;;;;;;;;;;;;2.73;68.49;100974.91;1088025;54;19927;-83
2023/01/22 15:52:54;;;;;;;;;;;;;;;2.76;68.70;100966.84;1087931;54;19943;-83
2023/01/22 15:53:59;;;;;;;;;;;;;;;2.81;68.51;100977.19;1088067;54;19943;-83
2023/01/22 15:55:23;;;;;;;;;;;;;;;2.81;68.52;100969.28;1087842;54;20352;-84
2023/01/22 15:57:33;;;;;;;;;;;;;;;2.72;68.33;100970.56;1088427;54;19935;-83
2023/01/22 15:59:40;;;;;;;;;;;;;;;2.80;68.24;100970.19;1087761;54;20771;-83
2023/01/22 16:00:42;;;;;;;;;;;;;;;2.75;68.13;100969.53;1089851;47;19926;-83
2023/01/22 16:01:46;;;;;;;;;;;;;;;2.78;68.36;100980.84;1088366;54;19950;-84
2023/01/22 16:02:50;;;;;;;;;;;;;;;2.79;68.52;100971.13;1088089;54;19970;-83
2023/01/22 16:03:54;;;;;;;;;;;;;;;2.84;68.48;100974.41;1087812;54;19949;-82
2023/01/22 16:04:58;;;;;;;;;;;;;;;2.78;68.73;100975.56;1088372;54;19943;-84
2023/01/22 16:07:05;;;;;;;;;;;;;;;2.79;68.85;100976.41;1088348;54;19965;-84
2023/01/22 16:08:09;;;;;;;;;;;;;;;2.76;68.72;100971.25;1090097;47;19943;-82
2023/01/22 16:09:11;;;;;;;;;;;;;;;2.68;68.71;100970.75;1089350;47;19967;-83
2023/01/22 16:11:18;;;;;;;;;;;;;;;2.71;68.71;100970.63;1088189;54;19943;-84
2023/01/22 16:15:27;;;;;;;;;;;;;;;2.75;68.89;100964.25;1087926;54;19958;-83
2023/01/22 16:19:00;;;;;;;;;;;;;;;2.79;68.99;100976.41;1088484;54;19934;-83
2023/01/22 16:20:02;;;;;;;;;;;;;;;2.78;68.87;100975.56;1088203;54;19946;-83
2023/01/22 16:21:06;;;;;;;;;;;;;;;2.79;68.93;100974.59;1088757;54;19927;-84
2023/01/22 16:22:10;;;;;;;;;;;;;;;2.85;68.81;100975.28;1088682;54;19927;-83
2023/01/22 16:24:17;;;;;;;;;;;;;;;2.86;68.90;100983.09;1088762;54;19939;-85
2023/01/22 16:25:21;;;;;;;;;;;;;;;2.73;69.13;100974.06;1088618;54;20700;-85
2023/01/22 16:26:23;;;;;;;;;;;;;;;2.69;69.24;100985.69;1088753;54;19922;-84
2023/01/22 16:27:27;;;;;;;;;;;;;;;2.69;69.46;100977.75;1088779;54;19995;-84
2023/01/22 16:28:31;;;;;;;;;;;;;;;2.67;69.31;100979.59;1088587;54;20347;-86
2023/01/22 16:30:44;;;;;;;;;;;;;;;2.62;69.72;100985.97;1085081;54;19939;-85
2023/01/22 16:31:51;;;;;;;;;;;;;;;2.69;69.99;100988.31;1088657;54;19949;-83
2023/01/22 16:32:53;;;;;;;;;;;;;;;2.73;69.44;100982.81;1109691;39;20487;-83
2023/01/22 16:33:59;;;;;;;;;;;;;;;2.75;69.79;100988.03;1088829;54;19926;-83
2023/01/22 16:35:00;;;;;;;;;;;;;;;2.69;69.52;100985.69;1088744;54;19949;-84
2023/01/22 16:36:11;;;;;;;;;;;;;;;2.63;69.58;100992.09;1088685;54;19927;-84
2023/01/22 16:37:15;;;;;;;;;;;;;;;2.60;69.83;100985.19;1088043;54;19942;-82
2023/01/22 16:38:16;;;;;;;;;;;;;;;2.58;69.73;101000.22;1088179;54;19950;-82
2023/01/22 16:39:21;;;;;;;;;;;;;;;2.56;70.20;100991.53;1088352;54;19945;-82
2023/01/22 16:41:31;;;;;;;;;;;;;;;2.62;70.00;100990.38;1088733;54;19942;-84
2023/01/22 16:42:33;;;;;;;;;;;;;;;2.61;69.81;100997.47;1088642;54;19927;-84
2023/01/22 16:43:38;;;;;;;;;;;;;;;2.57;70.07;101003.78;1088600;54;20635;-85
2023/01/22 16:44:53;;;;;;;;;;;;;;;2.60;70.21;101003.66;1088825;46;19965;-81
2023/01/22 16:45:55;;;;;;;;;;;;;;;2.60;70.00;101010.72;1088449;54;19966;-85
2023/01/22 16:47:05;;;;;;;;;;;;;;;2.55;69.99;101003.00;1088608;54;19938;-83
2023/01/22 16:48:07;;;;;;;;;;;;;;;2.56;70.36;101007.34;1088513;54;19926;-83
2023/01/22 16:49:15;;;;;;;;;;;;;;;2.55;70.23;101005.63;1092906;46;19943;-83
2023/01/22 16:50:17;;;;;;;;;;;;;;;2.56;70.50;101012.63;1088497;54;19935;-83
2023/01/22 16:51:26;;;;;;;;;;;;;;;2.62;70.44;101011.50;1088552;54;19927;-83
2023/01/22 16:52:32;;;;;;;;;;;;;;;2.58;70.35;101010.78;1088517;54;19943;-84
2023/01/22 17:05:54;;;;;;;;;;;;;;;2.56;70.54;101020.56;1088170;39;20662;-81
2023/01/22 17:07:04;;;;;;;;;;;;;;;2.60;70.82;101021.28;1087606;54;19957;-81
2023/01/22 17:08:15;;;;;;;;;;;;;;;2.62;70.67;101020.31;1087524;54;19956;-81
2023/01/22 17:09:21;;;;;;;;;;;;;;;2.56;70.24;101028.47;1087621;54;19943;-82
2023/01/22 17:10:22;;;;;;;;;;;;;;;2.56;70.91;101027.63;1087561;54;20268;-83
2023/01/22 17:11:30;;;;;;;;;;;;;;;2.58;70.64;101024.00;1087725;54;19992;-83
2023/01/22 17:12:34;;;;;;;;;;;;;;;2.62;70.69;101022.94;1087688;54;19973;-82
2023/01/22 17:13:42;;;;;;;;;;;;;;;2.62;70.69;101022.94;1087549;54;19942;-83
2023/01/22 17:15:19;;;;;;;;;;;;;;;2.62;70.46;101025.59;1087637;54;19942;-83
2023/01/22 17:16:46;;;;;;;;;;;;;;;2.58;70.60;101033.72;1087521;54;19942;-82
2023/01/22 17:17:51;;;;;;;;;;;;;;;2.59;70.96;101025.72;1087595;54;19946;-82
2023/01/22 17:19:02;;;;;;;;;;;;;;;2.59;70.96;101028.34;1087620;54;19942;-83
2023/01/22 17:20:31;;;;;;;;;;;;;;;2.60;70.83;101026.56;1087618;54;19949;-83
2023/01/22 17:23:14;;;;;;;;;;;;;;;2.60;71.28;101031.84;1087439;54;19959;-80
2023/01/22 17:29:15;;;;;;;;;;;;;;;2.62;70.43;101033.50;1087542;46;20022;-83
2023/01/22 17:30:28;;;;;;;;;;;;;;;2.63;70.60;101035.22;1087658;54;19942;-83
2023/01/22 17:31:33;;;;;;;;;;;;;;;2.64;70.58;101036.06;1087660;54;19945;-82
2023/01/22 17:32:45;;;;;;;;;;;;;;;2.63;70.21;101034.34;1087680;54;19943;-81
2023/01/22 17:33:54;;;;;;;;;;;;;;;2.68;70.18;101035.00;1087631;54;19955;-85
2023/01/22 17:35:22;;;;;;;;;;;;;;;2.66;70.31;101042.13;1087606;54;19966;-82
2023/01/22 17:36:32;;;;;;;;;;;;;;;2.60;70.33;101040.63;1087497;54;19941;-81
2023/01/22 17:37:34;;;;;;;;;;;;;;;2.59;70.49;101038.91;1087608;54;19926;-82
2023/01/22 17:38:38;;;;;;;;;;;;;;;2.53;70.75;101035.69;1087585;54;19943;-81
2023/01/22 17:39:41;;;;;;;;;;;;;;;2.50;71.00;101040.16;1087625;54;19927;-82
2023/01/22 17:40:45;;;;;;;;;;;;;;;2.49;70.95;101037.59;1087564;54;19942;-82
2023/01/22 17:41:49;;;;;;;;;;;;;;;2.48;70.68;101035.88;1087596;54;19969;-85
2023/01/22 17:42:50;;;;;;;;;;;;;;;2.48;70.59;101035.88;1087470;54;19943;-82
2023/01/22 17:43:56;;;;;;;;;;;;;;;2.48;70.77;101038.53;1087648;54;19947;-81
2023/01/22 17:44:57;;;;;;;;;;;;;;;2.47;71.02;101036.81;1088035;54;19943;-82
2023/01/22 17:46:01;;;;;;;;;;;;;;;2.51;70.85;101038.41;1088031;54;19950;-81
2023/01/22 17:47:05;;;;;;;;;;;;;;;2.48;70.76;101042.03;1088020;54;19926;-82
2023/01/22 17:48:09;;;;;;;;;;;;;;;2.55;70.65;101045.25;1087663;54;19942;-80
2023/01/22 17:49:13;;;;;;;;;;;;;;;2.60;70.50;101042.41;1089381;46;19958;-80
2023/01/22 17:50:17;;;;;;;;;;;;;;;2.61;70.32;101049.38;1088181;54;19946;-82
2023/01/22 17:51:21;;;;;;;;;;;;;;;2.55;70.32;101045.25;1088202;54;19982;-82
2023/01/22 17:52:26;;;;;;;;;;;;;;;2.60;70.24;101053.84;1089559;46;19933;-82
2023/01/22 17:53:32;;;;;;;;;;;;;;;2.57;70.39;101050.47;1088356;54;19934;-83
2023/01/22 17:54:35;;;;;;;;;;;;;;;2.60;70.29;101045.91;1088462;54;19949;-84
2023/01/22 17:55:39;;;;;;;;;;;;;;;2.64;70.14;101052.78;1088808;46;19950;-82
2023/01/22 17:56:46;;;;;;;;;;;;;;;2.68;70.30;101055.25;1088371;54;19943;-83
2023/01/22 17:57:49;;;;;;;;;;;;;;;2.70;70.29;101054.25;1088217;54;19930;-81
2023/01/22 17:58:54;;;;;;;;;;;;;;;2.73;69.88;101051.50;1096263;39;20229;-84
2023/01/22 17:59:56;;;;;;;;;;;;;;;2.69;70.06;101054.34;1088171;39;20569;-82
2023/01/22 18:01:02;;;;;;;;;;;;;;;2.71;70.02;101052.50;1088079;54;19926;-82
2023/01/22 18:02:06;;;;;;;;;;;;;;;2.60;70.03;101051.19;1087955;54;19923;-80
2023/01/22 18:03:07;;;;;;;;;;;;;;;2.58;70.20;101055.66;1088638;46;19973;-82
2023/01/22 18:04:12;;;;;;;;;;;;;;;2.54;70.45;101051.47;1087982;54;19942;-82
2023/01/22 18:05:16;;;;;;;;;;;;;;;2.48;70.55;101055.25;1087924;46;19949;-82
2023/01/22 18:06:20;;;;;;;;;;;;;;;2.52;70.60;101057.72;1087935;54;19973;-81
2023/01/22 18:07:22;;;;;;;;;;;;;;;2.52;71.06;101052.44;1087949;54;19993;-81
2023/01/22 18:08:25;;;;;;;;;;;;;;;2.58;70.93;101058.31;1088014;54;19942;-81
2023/01/22 18:09:29;;;;;;;;;;;;;;;2.59;70.59;101062.66;1087899;54;19943;-83
2023/01/22 18:10:32;;;;;;;;;;;;;;;2.65;70.54;101064.19;1088092;46;19981;-82
2023/01/22 18:11:37;;;;;;;;;;;;;;;2.71;70.36;101058.63;1087932;54;19943;-82
2023/01/22 18:12:41;;;;;;;;;;;;;;;2.68;70.26;101057.91;1087881;54;19949;-83
2023/01/22 18:13:42;;;;;;;;;;;;;;;2.67;70.46;101069.38;1087923;54;19967;-83
2023/01/22 18:14:46;;;;;;;;;;;;;;;2.56;70.47;101070.72;1090114;46;19943;-83
2023/01/22 18:15:48;;;;;;;;;;;;;;;2.56;70.82;101062.78;1087918;54;19942;-82
2023/01/22 18:16:52;;;;;;;;;;;;;;;2.58;70.87;101068.03;1089453;46;19949;-82